La Porte, Minnesota
Current Conditions -  °F | °C
As of 6:35 AM on Monday 20 Oct 2014 (Local Time) from KY49 Reporting Station
Clear Clear  
Wind Chill: 37°   Ceiling: Unl
Heat Index: 37°   Visibility: 10mi
Dew Point: 37°   Wind: 3mph
Humidity: 97%   Direction: 300°WNW
Pressure: 29.98"   Gusts: NA
Location:  47.2392°N, 94.7928°W
Report Text: KY49 201135Z AUTO 30003KT 10SM CLR 03/03 A2998 RMK AO2 T00300025
Loading
Personal Weather Stations






























Interactive Weather Map
Tropical Storm Tracking
New forecast layout! Learn more

10-Day Weather Forecast

Advertisements
Track Severe Weather on mobile